Time;durP1;ratioP1;P1;durP2;ratioP2;P2;SDS_P1;SDS_P2;PMS_P1;PMS_P2;Temp;Humidity;BMP_temperature;BMP_pressure;BME280_temperature;BME280_humidity;BME280_pressure;Samples;Min_cycle;Max_cycle;Signal;HPM_P1;HPM_P2
2024/01/20 00:00:03;;;;;;;9.93;8.83;;;;;;;;;;6215036;23;20443;-68
2024/01/20 00:02:29;;;;;;;11.67;8.83;;;;;;;;;;6215096;23;20367;-68
2024/01/20 00:04:55;;;;;;;9.30;7.90;;;;;;;;;;6215422;23;20375;-68
2024/01/20 00:07:22;;;;;;;9.73;8.63;;;;;;;;;;6216046;23;20400;-68
2024/01/20 00:09:47;;;;;;;9.10;8.20;;;;;;;;;;6214940;23;20394;-68
2024/01/20 00:12:13;;;;;;;13.80;8.93;;;;;;;;;;6188489;23;20395;-68
2024/01/20 00:14:39;;;;;;;14.50;9.63;;;;;;;;;;6214932;23;20500;-68
2024/01/20 00:17:05;;;;;;;9.87;8.73;;;;;;;;;;6215636;23;20710;-68
2024/01/20 00:19:31;;;;;;;10.00;8.53;;;;;;;;;;6215283;23;20403;-68
2024/01/20 00:21:57;;;;;;;9.63;8.00;;;;;;;;;;6215328;23;20383;-68
2024/01/20 00:24:23;;;;;;;9.60;7.70;;;;;;;;;;6215809;23;20405;-68
2024/01/20 00:26:49;;;;;;;10.53;8.47;;;;;;;;;;6216056;23;20379;-68
2024/01/20 00:29:15;;;;;;;9.00;8.17;;;;;;;;;;6215175;23;20481;-69
2024/01/20 00:31:41;;;;;;;12.53;8.77;;;;;;;;;;6215140;23;20379;-68
2024/01/20 00:34:07;;;;;;;8.83;8.03;;;;;;;;;;6215035;23;20841;-69
2024/01/20 00:36:34;;;;;;;12.40;8.93;;;;;;;;;;6216799;23;20383;-68
2024/01/20 00:38:59;;;;;;;9.50;8.10;;;;;;;;;;6217184;23;20441;-68
2024/01/20 00:41:25;;;;;;;10.50;8.83;;;;;;;;;;6217123;23;20446;-68
2024/01/20 00:43:52;;;;;;;12.23;8.53;;;;;;;;;;6217132;23;20387;-68
2024/01/20 00:46:18;;;;;;;9.10;8.10;;;;;;;;;;6216796;23;20378;-68
2024/01/20 00:48:44;;;;;;;8.53;7.60;;;;;;;;;;6216795;23;20375;-68
2024/01/20 00:54:13;;;;;;;9.97;7.73;;;;;;;;;;6216738;23;20443;-68
2024/01/20 00:56:39;;;;;;;12.30;8.30;;;;;;;;;;6216640;23;20418;-68
2024/01/20 00:59:05;;;;;;;8.20;7.43;;;;;;;;;;6216641;23;20421;-69
2024/01/20 01:01:31;;;;;;;9.13;7.40;;;;;;;;;;6216489;23;20387;-68
2024/01/20 01:03:57;;;;;;;8.07;6.60;;;;;;;;;;6216593;23;20383;-68
2024/01/20 01:06:23;;;;;;;10.70;7.60;;;;;;;;;;6216450;23;20514;-69
2024/01/20 01:08:49;;;;;;;8.70;7.80;;;;;;;;;;6216469;23;20709;-68
2024/01/20 01:11:15;;;;;;;7.77;6.83;;;;;;;;;;6216753;23;20387;-68
2024/01/20 01:13:41;;;;;;;8.40;7.57;;;;;;;;;;6216458;23;20379;-68
2024/01/20 01:16:07;;;;;;;8.80;7.67;;;;;;;;;;6216573;23;20458;-68
2024/01/20 01:18:33;;;;;;;6.87;6.23;;;;;;;;;;6189779;23;20861;-68
2024/01/20 01:20:59;;;;;;;8.20;6.83;;;;;;;;;;6216391;23;20433;-68
2024/01/20 01:23:25;;;;;;;7.67;6.83;;;;;;;;;;6216300;23;20414;-69
2024/01/20 01:25:53;;;;;;;7.40;6.70;;;;;;;;;;6216654;23;20375;-68
2024/01/20 01:28:19;;;;;;;7.57;6.73;;;;;;;;;;6216224;23;20375;-68
2024/01/20 01:30:47;;;;;;;10.47;7.53;;;;;;;;;;6216180;23;20376;-68
2024/01/20 01:33:13;;;;;;;8.00;7.03;;;;;;;;;;6216073;23;20413;-68
2024/01/20 01:35:39;;;;;;;6.83;6.13;;;;;;;;;;6216080;23;20462;-68
2024/01/20 01:38:05;;;;;;;10.90;8.30;;;;;;;;;;6216241;23;20452;-68
2024/01/20 01:40:31;;;;;;;20.63;10.80;;;;;;;;;;6216170;23;20391;-69
2024/01/20 01:42:57;;;;;;;11.63;8.83;;;;;;;;;;6216366;23;20409;-68
2024/01/20 01:45:24;;;;;;;17.53;11.53;;;;;;;;;;6216413;23;20429;-69
2024/01/20 01:47:51;;;;;;;15.27;9.53;;;;;;;;;;6215574;23;20375;-69
2024/01/20 01:50:17;;;;;;;18.10;10.33;;;;;;;;;;6216543;23;20375;-69
2024/01/20 01:52:43;;;;;;;15.70;9.00;;;;;;;;;;6216476;23;20382;-68
2024/01/20 01:55:11;;;;;;;11.33;8.20;;;;;;;;;;6216352;23;20766;-68
2024/01/20 01:57:38;;;;;;;7.57;6.87;;;;;;;;;;6216484;23;20403;-68
2024/01/20 02:00:04;;;;;;;7.97;6.20;;;;;;;;;;6215704;23;20938;-69
2024/01/20 02:02:30;;;;;;;10.57;7.03;;;;;;;;;;6190008;23;20455;-69
2024/01/20 02:04:56;;;;;;;14.50;8.30;;;;;;;;;;6216153;23;20462;-68
2024/01/20 02:07:22;;;;;;;10.83;6.27;;;;;;;;;;6216004;23;20375;-69
2024/01/20 02:09:48;;;;;;;12.73;7.57;;;;;;;;;;6216069;23;20467;-68
2024/01/20 02:12:14;;;;;;;8.67;7.73;;;;;;;;;;6216323;23;20450;-69
2024/01/20 02:14:42;;;;;;;10.90;7.63;;;;;;;;;;6216716;23;20506;-69
2024/01/20 02:17:08;;;;;;;6.73;6.13;;;;;;;;;;6189119;23;20403;-68
2024/01/20 02:19:38;;;;;;;11.67;7.33;;;;;;;;;;6189357;23;20440;-69
2024/01/20 02:22:13;;;;;;;12.17;8.30;;;;;;;;;;6215690;23;20845;-68
2024/01/20 02:24:40;;;;;;;7.97;7.20;;;;;;;;;;6216204;23;20386;-68
2024/01/20 02:27:06;;;;;;;8.03;6.70;;;;;;;;;;6215738;23;20375;-68
2024/01/20 02:29:32;;;;;;;8.00;7.07;;;;;;;;;;6215975;23;20908;-68
2024/01/20 02:31:58;;;;;;;27.37;11.67;;;;;;;;;;6215985;23;20386;-68
2024/01/20 02:34:24;;;;;;;46.60;18.20;;;;;;;;;;6216614;23;20446;-68
2024/01/20 02:36:51;;;;;;;35.10;16.97;;;;;;;;;;6215766;23;20712;-68
2024/01/20 02:39:17;;;;;;;24.53;12.43;;;;;;;;;;6215738;23;20876;-69
2024/01/20 02:41:43;;;;;;;10.33;8.07;;;;;;;;;;6215611;23;20379;-69
2024/01/20 02:44:09;;;;;;;10.50;6.70;;;;;;;;;;6215704;23;20740;-68
2024/01/20 02:46:35;;;;;;;6.40;6.00;;;;;;;;;;6216135;23;20722;-69
2024/01/20 02:49:01;;;;;;;7.13;6.53;;;;;;;;;;6215695;23;20940;-68
2024/01/20 02:51:27;;;;;;;7.40;6.27;;;;;;;;;;6188986;23;20409;-69
2024/01/20 02:53:53;;;;;;;8.33;7.50;;;;;;;;;;6215600;23;20371;-68
2024/01/20 02:56:19;;;;;;;7.67;6.97;;;;;;;;;;6215856;23;20435;-68
2024/01/20 02:58:45;;;;;;;11.50;7.90;;;;;;;;;;6216058;23;20459;-68
2024/01/20 03:01:11;;;;;;;9.63;8.30;;;;;;;;;;6215986;23;20927;-68
2024/01/20 03:03:37;;;;;;;11.07;8.00;;;;;;;;;;6215754;23;20375;-68
2024/01/20 03:06:03;;;;;;;18.97;11.43;;;;;;;;;;6215413;23;20378;-69
2024/01/20 03:08:29;;;;;;;18.83;9.93;;;;;;;;;;6215426;23;20857;-69
2024/01/20 03:10:55;;;;;;;15.67;9.87;;;;;;;;;;6215903;23;20371;-69
2024/01/20 03:13:21;;;;;;;18.57;10.40;;;;;;;;;;6216156;23;20821;-69
2024/01/20 03:15:47;;;;;;;12.57;9.67;;;;;;;;;;6216202;23;20437;-68
2024/01/20 03:18:13;;;;;;;10.70;9.37;;;;;;;;;;6216228;23;20376;-69
2024/01/20 03:20:39;;;;;;;13.53;10.20;;;;;;;;;;6215858;23;20919;-68
2024/01/20 03:23:06;;;;;;;12.20;10.00;;;;;;;;;;6215296;23;20375;-69
2024/01/20 03:25:32;;;;;;;13.43;11.13;;;;;;;;;;6215801;23;20409;-70
2024/01/20 03:27:58;;;;;;;15.13;11.73;;;;;;;;;;6215810;23;20375;-69
2024/01/20 03:30:24;;;;;;;14.80;11.00;;;;;;;;;;6213916;23;20375;-69
2024/01/20 03:32:50;;;;;;;18.10;11.50;;;;;;;;;;6215648;23;20390;-69
2024/01/20 03:35:16;;;;;;;14.23;10.20;;;;;;;;;;6215582;23;20439;-68
2024/01/20 03:37:42;;;;;;;15.43;11.13;;;;;;;;;;6215365;23;20457;-69
2024/01/20 03:40:08;;;;;;;14.30;9.30;;;;;;;;;;6215436;23;20379;-68
2024/01/20 03:42:34;;;;;;;13.13;9.77;;;;;;;;;;6188677;23;20766;-69
2024/01/20 03:45:00;;;;;;;15.23;10.83;;;;;;;;;;6215940;23;20375;-69
2024/01/20 03:47:26;;;;;;;11.77;9.20;;;;;;;;;;6215305;23;20389;-69
2024/01/20 03:49:52;;;;;;;14.37;10.80;;;;;;;;;;6215153;23;20387;-69
2024/01/20 03:52:18;;;;;;;15.13;10.97;;;;;;;;;;6215580;23;20371;-69
2024/01/20 03:54:44;;;;;;;12.00;10.40;;;;;;;;;;6215197;23;20426;-69
2024/01/20 03:57:11;;;;;;;12.37;9.73;;;;;;;;;;6215763;23;20375;-69
2024/01/20 03:59:37;;;;;;;18.00;11.50;;;;;;;;;;6215025;23;20430;-69
2024/01/20 04:02:03;;;;;;;12.50;10.23;;;;;;;;;;6215202;23;20677;-68
2024/01/20 04:04:29;;;;;;;14.10;10.60;;;;;;;;;;6215260;23;20367;-69
2024/01/20 04:06:56;;;;;;;15.50;11.93;;;;;;;;;;6189031;23;20379;-70
2024/01/20 04:09:22;;;;;;;15.50;11.10;;;;;;;;;;6215871;23;20466;-69
2024/01/20 04:11:48;;;;;;;14.90;11.33;;;;;;;;;;6217430;23;20740;-69
2024/01/20 04:14:14;;;;;;;10.40;9.27;;;;;;;;;;6216991;23;20381;-69
2024/01/20 04:16:40;;;;;;;13.77;10.50;;;;;;;;;;6217080;23;20414;-69
2024/01/20 04:19:06;;;;;;;16.43;10.83;;;;;;;;;;6215501;23;20443;-69
2024/01/20 04:21:32;;;;;;;17.63;10.90;;;;;;;;;;6217393;23;20394;-69
2024/01/20 04:23:58;;;;;;;14.97;10.77;;;;;;;;;;6217085;23;20411;-69
2024/01/20 04:26:24;;;;;;;14.23;11.40;;;;;;;;;;6217346;23;20386;-68
2024/01/20 04:28:50;;;;;;;18.00;12.40;;;;;;;;;;6217438;23;20907;-68
2024/01/20 04:31:16;;;;;;;14.97;12.50;;;;;;;;;;6216890;23;20414;-69
2024/01/20 04:33:42;;;;;;;14.83;10.20;;;;;;;;;;6216988;23;20385;-69
2024/01/20 04:36:08;;;;;;;12.10;9.90;;;;;;;;;;6217385;23;20884;-68
2024/01/20 04:38:34;;;;;;;15.60;11.97;;;;;;;;;;6190402;23;20750;-69
2024/01/20 04:41:00;;;;;;;12.63;9.80;;;;;;;;;;6216827;23;20410;-69
2024/01/20 04:43:27;;;;;;;18.50;12.80;;;;;;;;;;6216881;23;20437;-69
2024/01/20 04:45:54;;;;;;;13.77;11.27;;;;;;;;;;6217089;23;20371;-68
2024/01/20 04:48:20;;;;;;;18.03;12.10;;;;;;;;;;6216814;23;20371;-68
2024/01/20 04:50:46;;;;;;;15.70;11.83;;;;;;;;;;6216730;23;20410;-68
2024/01/20 04:53:12;;;;;;;17.93;12.03;;;;;;;;;;6217412;23;20378;-68
2024/01/20 04:55:38;;;;;;;19.40;11.93;;;;;;;;;;6217357;23;20896;-68
2024/01/20 04:58:04;;;;;;;19.80;12.53;;;;;;;;;;6216771;23;20375;-68
2024/01/20 05:00:30;;;;;;;16.80;11.50;;;;;;;;;;6216486;23;20485;-68
2024/01/20 05:02:57;;;;;;;32.70;16.73;;;;;;;;;;6217014;23;20379;-68
2024/01/20 05:05:23;;;;;;;18.20;11.20;;;;;;;;;;6216668;23;20687;-68
2024/01/20 05:07:49;;;;;;;20.67;12.60;;;;;;;;;;6216979;23;20388;-68
2024/01/20 05:10:15;;;;;;;15.50;11.70;;;;;;;;;;6217018;23;20741;-68
2024/01/20 05:12:40;;;;;;;15.67;10.63;;;;;;;;;;6216807;23;20382;-68
2024/01/20 05:15:11;;;;;;;16.47;12.40;;;;;;;;;;6216543;23;20506;-68
2024/01/20 05:17:37;;;;;;;17.23;11.80;;;;;;;;;;6216965;23;20367;-68
2024/01/20 05:20:04;;;;;;;13.03;9.87;;;;;;;;;;6217454;23;20419;-68
2024/01/20 05:22:30;;;;;;;13.33;9.87;;;;;;;;;;6215819;23;20374;-68
2024/01/20 05:24:56;;;;;;;14.57;11.10;;;;;;;;;;6216789;23;20371;-67
2024/01/20 05:27:22;;;;;;;13.90;10.13;;;;;;;;;;6216498;23;20375;-69
2024/01/20 05:29:48;;;;;;;12.73;10.27;;;;;;;;;;6216514;23;20375;-68
2024/01/20 05:32:15;;;;;;;15.30;11.20;;;;;;;;;;6216185;23;20379;-68
2024/01/20 05:34:41;;;;;;;15.20;10.80;;;;;;;;;;6216202;23;20725;-68
2024/01/20 05:37:07;;;;;;;13.13;10.00;;;;;;;;;;6216414;23;20411;-68
2024/01/20 05:39:33;;;;;;;15.90;11.47;;;;;;;;;;6216666;23;20378;-67
2024/01/20 05:41:59;;;;;;;13.53;10.93;;;;;;;;;;6216289;23;20375;-67
2024/01/20 05:44:25;;;;;;;15.63;11.27;;;;;;;;;;6216321;23;20371;-68
2024/01/20 05:46:51;;;;;;;17.33;12.17;;;;;;;;;;6216207;23;20375;-68
2024/01/20 05:49:17;;;;;;;15.17;11.97;;;;;;;;;;6216378;23;20378;-68
2024/01/20 05:51:43;;;;;;;15.97;11.47;;;;;;;;;;6216582;23;20390;-69
2024/01/20 05:54:09;;;;;;;23.30;10.80;;;;;;;;;;6216048;23;20479;-68
2024/01/20 05:56:35;;;;;;;12.90;10.73;;;;;;;;;;6217423;23;20869;-68
2024/01/20 05:59:01;;;;;;;17.93;11.80;;;;;;;;;;6215886;23;20418;-68
2024/01/20 06:01:27;;;;;;;21.03;12.47;;;;;;;;;;6216781;23;20370;-68
2024/01/20 06:03:53;;;;;;;13.97;9.87;;;;;;;;;;6216360;23;20458;-68
2024/01/20 06:06:19;;;;;;;18.03;11.03;;;;;;;;;;6216374;23;20387;-68
2024/01/20 06:08:45;;;;;;;15.83;11.87;;;;;;;;;;6216347;23;20421;-68
2024/01/20 06:11:11;;;;;;;15.00;10.47;;;;;;;;;;6216402;23;20383;-68
2024/01/20 06:13:37;;;;;;;11.97;9.97;;;;;;;;;;6216291;23;20394;-68
2024/01/20 06:16:05;;;;;;;16.40;11.00;;;;;;;;;;6215688;23;20439;-68
2024/01/20 06:18:31;;;;;;;18.50;13.20;;;;;;;;;;6216268;23;20403;-68
2024/01/20 06:20:59;;;;;;;16.23;11.87;;;;;;;;;;6216303;23;20390;-68
2024/01/20 06:23:25;;;;;;;17.93;10.10;;;;;;;;;;6215987;23;20371;-68
2024/01/20 06:25:51;;;;;;;11.70;9.57;;;;;;;;;;6216161;23;20459;-68
2024/01/20 06:28:17;;;;;;;11.80;9.10;;;;;;;;;;6215839;23;20394;-68
2024/01/20 06:30:46;;;;;;;13.43;10.77;;;;;;;;;;6216192;23;20385;-68
2024/01/20 06:33:12;;;;;;;14.93;11.20;;;;;;;;;;6215888;23;20363;-68
2024/01/20 06:35:38;;;;;;;12.53;10.07;;;;;;;;;;6216098;23;20489;-68
2024/01/20 06:38:04;;;;;;;15.47;12.13;;;;;;;;;;6215758;23;20367;-68
2024/01/20 06:40:30;;;;;;;14.30;11.10;;;;;;;;;;6215946;23;20454;-68
2024/01/20 06:42:56;;;;;;;15.77;11.17;;;;;;;;;;6215764;23;20403;-67
2024/01/20 06:45:22;;;;;;;14.00;10.00;;;;;;;;;;6214115;23;20423;-68
2024/01/20 06:47:48;;;;;;;14.00;10.67;;;;;;;;;;6215630;23;20364;-68
2024/01/20 06:50:15;;;;;;;18.90;11.33;;;;;;;;;;6216063;23;20406;-68
2024/01/20 06:52:41;;;;;;;14.63;11.80;;;;;;;;;;6215595;23;20367;-68
2024/01/20 06:55:07;;;;;;;16.60;11.50;;;;;;;;;;6216127;23;20790;-67
2024/01/20 06:57:33;;;;;;;18.23;11.60;;;;;;;;;;6215551;23;20398;-68
2024/01/20 06:59:59;;;;;;;17.20;13.00;;;;;;;;;;6215325;23;20427;-68
2024/01/20 07:02:25;;;;;;;20.70;13.50;;;;;;;;;;6215484;23;20447;-68
2024/01/20 07:04:51;;;;;;;20.87;13.37;;;;;;;;;;6215670;23;20454;-68
2024/01/20 07:07:17;;;;;;;25.00;14.47;;;;;;;;;;6215820;23;20927;-68
2024/01/20 07:09:43;;;;;;;17.90;11.03;;;;;;;;;;6215430;23;20743;-68
2024/01/20 07:12:09;;;;;;;23.10;11.87;;;;;;;;;;6215825;23;20371;-68
2024/01/20 07:14:35;;;;;;;16.53;11.43;;;;;;;;;;6215367;23;20928;-68
2024/01/20 07:17:01;;;;;;;14.27;11.00;;;;;;;;;;6215802;23;20387;-68
2024/01/20 07:19:29;;;;;;;29.10;16.27;;;;;;;;;;6215910;23;20397;-68
2024/01/20 07:21:55;;;;;;;19.77;12.37;;;;;;;;;;6213878;23;20383;-68
2024/01/20 07:24:21;;;;;;;19.90;12.63;;;;;;;;;;6215345;23;20747;-68
2024/01/20 07:26:47;;;;;;;19.10;13.57;;;;;;;;;;6216040;23;20379;-68
2024/01/20 07:29:13;;;;;;;19.30;12.50;;;;;;;;;;6215760;23;20875;-68
2024/01/20 07:31:39;;;;;;;18.73;12.60;;;;;;;;;;6215579;23;20406;-68
2024/01/20 07:34:05;;;;;;;21.93;14.27;;;;;;;;;;6214801;23;20749;-68
2024/01/20 07:36:31;;;;;;;20.37;13.27;;;;;;;;;;6215217;23;20435;-68
2024/01/20 07:38:57;;;;;;;19.60;12.30;;;;;;;;;;6215629;23;20379;-68
2024/01/20 07:41:23;;;;;;;16.57;11.40;;;;;;;;;;6215229;23;20383;-68
2024/01/20 07:43:49;;;;;;;21.37;12.50;;;;;;;;;;6213574;23;20379;-68
2024/01/20 07:46:15;;;;;;;17.43;12.20;;;;;;;;;;6217034;23;20382;-68
2024/01/20 07:48:43;;;;;;;17.77;13.80;;;;;;;;;;6217069;23;20375;-69
2024/01/20 07:51:09;;;;;;;18.57;12.67;;;;;;;;;;6217771;23;20371;-69
2024/01/20 07:53:34;;;;;;;20.93;11.50;;;;;;;;;;6217411;23;20386;-69
2024/01/20 07:56:00;;;;;;;19.37;12.87;;;;;;;;;;6217223;23;20461;-68
2024/01/20 07:58:26;;;;;;;19.73;12.67;;;;;;;;;;6217681;23;20458;-69
2024/01/20 08:00:52;;;;;;;22.73;13.03;;;;;;;;;;6217111;23;20458;-68
2024/01/20 08:03:18;;;;;;;19.20;12.57;;;;;;;;;;6217574;23;20425;-68
2024/01/20 08:05:45;;;;;;;17.60;12.93;;;;;;;;;;6216960;23;20387;-68
2024/01/20 08:08:11;;;;;;;18.13;12.03;;;;;;;;;;6217516;23;20378;-67
2024/01/20 08:10:37;;;;;;;17.60;11.67;;;;;;;;;;6217151;23;20379;-68
2024/01/20 08:13:03;;;;;;;19.10;12.73;;;;;;;;;;6217286;23;20383;-68
2024/01/20 08:15:29;;;;;;;16.50;10.43;;;;;;;;;;6217353;23;20441;-67
2024/01/20 08:17:55;;;;;;;14.57;10.37;;;;;;;;;;6217413;23;20379;-68
2024/01/20 08:20:21;;;;;;;22.20;12.47;;;;;;;;;;6217182;23;20386;-68
2024/01/20 08:22:47;;;;;;;21.30;13.00;;;;;;;;;;6216884;23;20793;-68
2024/01/20 08:25:15;;;;;;;17.43;12.03;;;;;;;;;;6216832;23;20704;-68
2024/01/20 08:27:41;;;;;;;17.77;11.50;;;;;;;;;;6215416;23;20462;-68
2024/01/20 08:30:07;;;;;;;16.70;12.33;;;;;;;;;;6216982;23;20394;-68
2024/01/20 08:32:33;;;;;;;11.13;9.53;;;;;;;;;;6216635;23;20375;-68
2024/01/20 08:34:59;;;;;;;16.90;9.80;;;;;;;;;;6216781;23;20430;-68
2024/01/20 08:37:25;;;;;;;15.10;9.80;;;;;;;;;;6216967;23;20419;-68
2024/01/20 08:39:51;;;;;;;13.13;10.20;;;;;;;;;;6217307;23;20378;-68
2024/01/20 08:42:17;;;;;;;17.37;9.77;;;;;;;;;;6216990;23;20463;-68
2024/01/20 08:44:43;;;;;;;13.80;10.20;;;;;;;;;;6217503;23;20403;-68
2024/01/20 08:47:09;;;;;;;11.20;8.10;;;;;;;;;;6216684;23;20402;-68
2024/01/20 08:49:35;;;;;;;12.03;9.33;;;;;;;;;;6216869;23;20540;-68
2024/01/20 08:52:01;;;;;;;12.33;8.20;;;;;;;;;;6216655;23;20414;-68
2024/01/20 08:54:27;;;;;;;11.70;8.83;;;;;;;;;;6216862;23;20394;-68
2024/01/20 08:56:53;;;;;;;11.40;9.63;;;;;;;;;;6216437;23;20869;-68
2024/01/20 08:59:19;;;;;;;10.60;8.90;;;;;;;;;;6216439;23;20414;-68
2024/01/20 09:01:45;;;;;;;11.33;8.67;;;;;;;;;;6217180;23;20412;-67
2024/01/20 09:04:11;;;;;;;10.00;8.37;;;;;;;;;;6190390;23;20465;-68
2024/01/20 09:06:39;;;;;;;15.17;11.30;;;;;;;;;;6189805;23;20877;-68
2024/01/20 09:09:05;;;;;;;19.23;13.40;;;;;;;;;;6216745;23;20444;-68
2024/01/20 09:11:31;;;;;;;17.83;12.70;;;;;;;;;;6215694;23;20431;-67
2024/01/20 09:13:57;;;;;;;20.20;15.05;;;;;;;;;;6215364;23;20420;-68
2024/01/20 09:16:23;;;;;;;18.30;13.30;;;;;;;;;;6216158;23;20183;-68
2024/01/20 09:18:49;;;;;;;18.73;11.47;;;;;;;;;;6216613;23;20405;-67
2024/01/20 09:21:15;;;;;;;19.23;12.23;;;;;;;;;;6216618;23;20380;-68
2024/01/20 09:23:41;;;;;;;19.00;12.57;;;;;;;;;;6216317;23;20437;-68
2024/01/20 09:26:07;;;;;;;17.27;11.87;;;;;;;;;;6216955;23;20387;-68
2024/01/20 09:28:33;;;;;;;17.90;12.40;;;;;;;;;;6216611;23;20409;-67
2024/01/20 09:30:59;;;;;;;15.83;13.60;;;;;;;;;;6214578;23;20387;-67
2024/01/20 09:33:25;;;;;;;19.23;12.70;;;;;;;;;;6216402;23;20695;-68
2024/01/20 09:35:51;;;;;;;20.07;15.10;;;;;;;;;;6216052;23;20987;-68
2024/01/20 09:38:17;;;;;;;14.03;11.27;;;;;;;;;;6216055;23;20376;-68
2024/01/20 09:40:43;;;;;;;12.40;10.53;;;;;;;;;;6214607;23;20398;-67
2024/01/20 09:43:09;;;;;;;15.87;11.43;;;;;;;;;;6216069;23;20710;-68
2024/01/20 09:45:38;;;;;;;17.10;13.10;;;;;;;;;;6189693;23;20449;-67
2024/01/20 09:48:05;;;;;;;14.30;11.53;;;;;;;;;;6216270;23;20833;-67
2024/01/20 09:50:31;;;;;;;43.40;31.27;;;;;;;;;;6216302;23;20390;-68
2024/01/20 09:53:00;;;;;;;25.30;17.10;;;;;;;;;;6216165;23;20372;-68
2024/01/20 09:55:27;;;;;;;15.30;11.43;;;;;;;;;;6213787;23;20795;-68
2024/01/20 09:57:54;;;;;;;12.53;11.13;;;;;;;;;;6216236;23;20376;-68
2024/01/20 10:00:24;;;;;;;16.73;11.67;;;;;;;;;;6215955;23;20435;-68
2024/01/20 10:02:50;;;;;;;16.00;12.00;;;;;;;;;;6216298;23;20743;-68
2024/01/20 10:05:16;;;;;;;14.50;11.57;;;;;;;;;;6215717;23;20379;-68
2024/01/20 10:07:42;;;;;;;15.77;12.63;;;;;;;;;;6215514;23;20922;-68
2024/01/20 10:10:13;;;;;;;15.53;12.00;;;;;;;;;;6216018;23;20466;-68
2024/01/20 10:12:39;;;;;;;17.63;11.90;;;;;;;;;;6216094;23;20368;-68
2024/01/20 10:15:05;;;;;;;16.27;12.10;;;;;;;;;;6215877;23;20508;-68
2024/01/20 10:17:36;;;;;;;17.53;11.53;;;;;;;;;;6216503;23;20375;-68
2024/01/20 10:20:02;;;;;;;18.73;12.70;;;;;;;;;;6213982;23;20387;-68
2024/01/20 10:22:28;;;;;;;21.93;13.37;;;;;;;;;;6215812;23;20379;-69
2024/01/20 10:24:54;;;;;;;21.27;13.67;;;;;;;;;;6215550;23;20411;-68
2024/01/20 10:27:25;;;;;;;18.10;12.87;;;;;;;;;;6215568;23;20418;-69
2024/01/20 10:29:51;;;;;;;21.20;14.33;;;;;;;;;;6215946;23;20375;-68
2024/01/20 10:32:17;;;;;;;18.40;12.93;;;;;;;;;;6215809;23;20919;-68
2024/01/20 10:34:44;;;;;;;25.17;14.27;;;;;;;;;;6213807;23;20759;-67
2024/01/20 10:37:14;;;;;;;28.00;17.63;;;;;;;;;;6215892;23;20391;-68
2024/01/20 10:39:43;;;;;;;18.63;12.00;;;;;;;;;;6215505;23;20856;-67
2024/01/20 10:42:13;;;;;;;15.57;12.57;;;;;;;;;;6215236;23;20376;-68
2024/01/20 10:44:42;;;;;;;20.20;13.20;;;;;;;;;;6215752;23;20379;-68
2024/01/20 10:47:12;;;;;;;16.20;11.90;;;;;;;;;;6215618;23;20394;-69
2024/01/20 10:49:43;;;;;;;29.80;19.07;;;;;;;;;;6215338;23;20355;-69
2024/01/20 10:52:10;;;;;;;20.87;13.73;;;;;;;;;;6215589;23;20884;-68
2024/01/20 10:54:37;;;;;;;17.90;13.80;;;;;;;;;;6215211;23;20899;-69
2024/01/20 10:57:03;;;;;;;33.30;20.80;;;;;;;;;;6215708;23;20380;-69
2024/01/20 10:59:31;;;;;;;32.27;17.20;;;;;;;;;;6215176;23;20426;-69
2024/01/20 11:01:57;;;;;;;20.30;13.57;;;;;;;;;;6214450;23;20464;-68
2024/01/20 11:04:23;;;;;;;19.67;13.67;;;;;;;;;;6215405;23;20375;-68
2024/01/20 11:06:50;;;;;;;33.30;19.53;;;;;;;;;;6213568;23;20732;-68
2024/01/20 11:09:25;;;;;;;25.33;16.17;;;;;;;;;;6215595;23;20415;-68
2024/01/20 11:12:01;;;;;;;25.90;16.60;;;;;;;;;;6215608;23;20883;-68
2024/01/20 11:14:30;;;;;;;22.50;15.47;;;;;;;;;;6215347;23;20790;-68
2024/01/20 11:16:56;;;;;;;22.47;14.20;;;;;;;;;;6215474;23;20383;-69
2024/01/20 11:19:22;;;;;;;21.27;14.20;;;;;;;;;;6215457;23;20383;-68
2024/01/20 11:21:49;;;;;;;20.17;13.60;;;;;;;;;;6215342;23;20394;-69
2024/01/20 11:24:17;;;;;;;18.63;12.87;;;;;;;;;;6215452;23;20363;-68
2024/01/20 11:26:43;;;;;;;11.90;10.60;;;;;;;;;;6214853;23;20375;-68
2024/01/20 11:29:10;;;;;;;16.97;12.00;;;;;;;;;;6215462;23;20367;-68
2024/01/20 11:31:36;;;;;;;16.57;11.70;;;;;;;;;;6215299;23;20387;-68
2024/01/20 11:34:04;;;;;;;18.87;13.57;;;;;;;;;;6215050;23;20458;-67
2024/01/20 11:36:31;;;;;;;15.70;12.90;;;;;;;;;;6215458;23;20473;-67
2024/01/20 11:38:57;;;;;;;15.90;11.40;;;;;;;;;;6213543;23;20391;-68
2024/01/20 11:41:24;;;;;;;13.20;11.10;;;;;;;;;;6213498;23;20894;-68
2024/01/20 11:43:50;;;;;;;14.30;11.17;;;;;;;;;;6215462;23;20376;-67
2024/01/20 11:46:16;;;;;;;13.63;10.63;;;;;;;;;;6215031;23;20454;-67
2024/01/20 11:48:42;;;;;;;11.63;10.40;;;;;;;;;;6215453;23;20371;-67
2024/01/20 11:51:09;;;;;;;19.20;12.57;;;;;;;;;;6214938;23;20378;-68
2024/01/20 11:53:35;;;;;;;15.90;11.70;;;;;;;;;;6215447;23;20148;-68
2024/01/20 11:56:03;;;;;;;14.10;10.47;;;;;;;;;;6214970;23;20540;-70
2024/01/20 11:58:32;;;;;;;17.97;11.40;;;;;;;;;;6215300;23;20539;-67
2024/01/20 12:00:59;;;;;;;14.10;11.07;;;;;;;;;;6215035;23;20442;-68
2024/01/20 12:03:26;;;;;;;15.17;9.83;;;;;;;;;;6213581;23;20386;-69
2024/01/20 12:05:52;;;;;;;18.07;12.13;;;;;;;;;;6215130;23;20421;-69
2024/01/20 12:08:18;;;;;;;14.43;10.90;;;;;;;;;;6215411;23;20733;-68
2024/01/20 12:10:45;;;;;;;13.30;10.60;;;;;;;;;;6215268;23;20489;-68
2024/01/20 12:13:12;;;;;;;13.90;11.50;;;;;;;;;;6215398;23;20470;-68
2024/01/20 12:15:38;;;;;;;21.07;12.87;;;;;;;;;;6216401;23;20755;-67
2024/01/20 12:18:05;;;;;;;15.80;12.17;;;;;;;;;;6215356;23;20834;-67
2024/01/20 12:20:31;;;;;;;16.90;12.77;;;;;;;;;;6213555;23;20391;-67
2024/01/20 12:23:00;;;;;;;19.50;12.07;;;;;;;;;;6216155;23;20671;-68
2024/01/20 12:25:27;;;;;;;19.73;13.43;;;;;;;;;;6215340;23;20464;-67
2024/01/20 12:27:53;;;;;;;16.80;12.07;;;;;;;;;;6215792;23;20411;-67
2024/01/20 12:30:19;;;;;;;15.33;11.03;;;;;;;;;;6215007;23;20367;-68
2024/01/20 12:32:45;;;;;;;15.53;11.57;;;;;;;;;;6216881;23;20407;-68
2024/01/20 12:35:11;;;;;;;12.20;10.80;;;;;;;;;;6217038;23;20418;-67
2024/01/20 12:37:37;;;;;;;15.27;10.83;;;;;;;;;;6217099;23;20379;-67
2024/01/20 12:40:07;;;;;;;22.30;13.40;;;;;;;;;;6217159;23;20374;-68
2024/01/20 12:42:33;;;;;;;14.97;11.60;;;;;;;;;;6217078;23;20433;-67
2024/01/20 12:44:59;;;;;;;15.17;11.77;;;;;;;;;;6217062;23;20375;-67
2024/01/20 12:47:25;;;;;;;41.03;28.77;;;;;;;;;;6216813;23;20395;-68
2024/01/20 12:49:54;;;;;;;18.03;12.60;;;;;;;;;;6217078;23;20378;-67
2024/01/20 12:52:22;;;;;;;16.57;12.00;;;;;;;;;;6217100;23;20375;-67
2024/01/20 12:54:48;;;;;;;16.77;12.60;;;;;;;;;;6216972;23;20904;-67
2024/01/20 12:57:14;;;;;;;19.30;12.60;;;;;;;;;;6215170;23;20486;-69
2024/01/20 12:59:40;;;;;;;18.20;13.20;;;;;;;;;;6216539;23;20427;-69
2024/01/20 13:02:06;;;;;;;16.33;13.50;;;;;;;;;;6216974;23;20438;-69
2024/01/20 13:04:32;;;;;;;22.93;13.70;;;;;;;;;;6218135;23;20379;-68
2024/01/20 13:06:58;;;;;;;23.30;11.73;;;;;;;;;;6217352;23;20407;-67
2024/01/20 13:09:24;;;;;;;16.83;12.77;;;;;;;;;;6216598;23;20807;-67
2024/01/20 13:11:50;;;;;;;18.73;13.67;;;;;;;;;;6217295;23;20408;-68
2024/01/20 13:14:16;;;;;;;21.10;13.53;;;;;;;;;;6216797;23;20422;-67
2024/01/20 13:16:43;;;;;;;19.60;12.70;;;;;;;;;;6216277;23;20477;-67
2024/01/20 13:19:09;;;;;;;25.17;15.83;;;;;;;;;;6216963;23;20371;-66
2024/01/20 13:21:35;;;;;;;18.50;13.30;;;;;;;;;;6216344;23;20387;-68
2024/01/20 13:24:00;;;;;;;18.63;13.07;;;;;;;;;;6216360;23;20876;-68
2024/01/20 13:26:26;;;;;;;19.70;10.17;;;;;;;;;;6216280;23;20402;-68
2024/01/20 13:28:53;;;;;;;23.80;17.50;;;;;;;;;;6215429;23;20374;-68
2024/01/20 13:31:20;;;;;;;19.73;15.03;;;;;;;;;;6216728;23;20402;-68
2024/01/20 13:33:46;;;;;;;14.63;12.50;;;;;;;;;;6216657;23;20379;-68
2024/01/20 13:36:12;;;;;;;18.43;11.90;;;;;;;;;;6215947;23;20484;-68
2024/01/20 13:38:38;;;;;;;20.20;13.90;;;;;;;;;;6216370;23;20363;-68
2024/01/20 13:41:05;;;;;;;22.43;14.83;;;;;;;;;;6215942;23;20920;-68
2024/01/20 13:43:31;;;;;;;24.13;14.30;;;;;;;;;;6216112;23;20406;-69
2024/01/20 13:45:57;;;;;;;20.80;13.47;;;;;;;;;;6216099;23;20433;-70
2024/01/20 13:48:23;;;;;;;22.50;13.90;;;;;;;;;;6216567;23;20422;-70
2024/01/20 13:50:49;;;;;;;26.63;14.47;;;;;;;;;;6216175;23;20371;-68
2024/01/20 13:53:16;;;;;;;17.80;13.03;;;;;;;;;;6215324;23;20387;-69
2024/01/20 13:55:42;;;;;;;15.30;12.67;;;;;;;;;;6215813;23;20427;-68
2024/01/20 13:58:08;;;;;;;17.50;13.13;;;;;;;;;;6214620;23;20880;-69
2024/01/20 14:00:34;;;;;;;18.50;13.50;;;;;;;;;;6213732;23;20828;-69
2024/01/20 14:03:00;;;;;;;18.03;13.67;;;;;;;;;;6215969;23;20376;-68
2024/01/20 14:05:26;;;;;;;19.70;15.30;;;;;;;;;;6215922;23;20437;-69
2024/01/20 14:07:52;;;;;;;19.57;13.90;;;;;;;;;;6217009;23;20458;-68
2024/01/20 14:10:18;;;;;;;30.30;18.33;;;;;;;;;;6215965;23;20374;-68
2024/01/20 14:12:44;;;;;;;24.33;16.40;;;;;;;;;;6215894;23;20450;-67
2024/01/20 14:15:10;;;;;;;24.80;14.93;;;;;;;;;;6189792;23;20512;-69
2024/01/20 14:17:36;;;;;;;26.03;16.30;;;;;;;;;;6216257;23;20397;-68